sensor_id;sensor_type;location;lat;lon;timestamp;temperature;humidity
6964;DHT22;3522;50.856;7.278;2023-04-16T00:01:54;7.30;99.90
6964;DHT22;3522;50.856;7.278;2023-04-16T00:04:21;7.30;99.90
6964;DHT22;3522;50.856;7.278;2023-04-16T00:06:48;7.30;99.90
6964;DHT22;3522;50.856;7.278;2023-04-16T00:09:16;7.30;99.90
6964;DHT22;3522;50.856;7.278;2023-04-16T00:11:42;7.30;99.90
6964;DHT22;3522;50.856;7.278;2023-04-16T00:14:09;7.30;99.90
6964;DHT22;3522;50.856;7.278;2023-04-16T00:16:35;7.30;99.90
6964;DHT22;3522;50.856;7.278;2023-04-16T00:19:02;7.30;99.90
6964;DHT22;3522;50.856;7.278;2023-04-16T00:21:29;7.30;99.90
6964;DHT22;3522;50.856;7.278;2023-04-16T00:23:56;7.30;99.90
6964;DHT22;3522;50.856;7.278;2023-04-16T00:26:24;7.30;99.90
6964;DHT22;3522;50.856;7.278;2023-04-16T00:28:50;7.30;99.90
6964;DHT22;3522;50.856;7.278;2023-04-16T00:31:17;7.30;99.90
6964;DHT22;3522;50.856;7.278;2023-04-16T00:33:43;7.30;99.90
6964;DHT22;3522;50.856;7.278;2023-04-16T00:36:10;7.30;99.90
6964;DHT22;3522;50.856;7.278;2023-04-16T00:38:37;7.30;99.90
6964;DHT22;3522;50.856;7.278;2023-04-16T00:41:03;7.30;99.90
6964;DHT22;3522;50.856;7.278;2023-04-16T00:43:31;7.30;99.90
6964;DHT22;3522;50.856;7.278;2023-04-16T00:45:57;7.30;99.90
6964;DHT22;3522;50.856;7.278;2023-04-16T00:48:24;7.30;99.90
6964;DHT22;3522;50.856;7.278;2023-04-16T00:50:52;7.30;99.90
6964;DHT22;3522;50.856;7.278;2023-04-16T00:53:20;7.20;99.90
6964;DHT22;3522;50.856;7.278;2023-04-16T00:55:47;7.20;99.90
6964;DHT22;3522;50.856;7.278;2023-04-16T00:58:13;7.20;99.90
6964;DHT22;3522;50.856;7.278;2023-04-16T01:00:41;7.30;99.90
6964;DHT22;3522;50.856;7.278;2023-04-16T01:03:08;7.30;99.90
6964;DHT22;3522;50.856;7.278;2023-04-16T01:05:34;7.30;99.90
6964;DHT22;3522;50.856;7.278;2023-04-16T01:08:01;7.30;99.90
6964;DHT22;3522;50.856;7.278;2023-04-16T01:10:27;7.30;99.90
6964;DHT22;3522;50.856;7.278;2023-04-16T01:12:54;7.30;99.90
6964;DHT22;3522;50.856;7.278;2023-04-16T01:15:20;7.30;99.90
6964;DHT22;3522;50.856;7.278;2023-04-16T01:17:48;7.30;99.90
6964;DHT22;3522;50.856;7.278;2023-04-16T01:20:15;7.30;99.90
6964;DHT22;3522;50.856;7.278;2023-04-16T01:22:43;7.30;99.90
6964;DHT22;3522;50.856;7.278;2023-04-16T01:25:12;7.30;99.90
6964;DHT22;3522;50.856;7.278;2023-04-16T01:27:39;7.30;99.90
6964;DHT22;3522;50.856;7.278;2023-04-16T01:30:06;7.30;99.90
6964;DHT22;3522;50.856;7.278;2023-04-16T01:32:32;7.30;99.90
6964;DHT22;3522;50.856;7.278;2023-04-16T01:34:59;7.30;99.90
6964;DHT22;3522;50.856;7.278;2023-04-16T01:37:26;7.30;99.90
6964;DHT22;3522;50.856;7.278;2023-04-16T01:39:54;7.30;99.90
6964;DHT22;3522;50.856;7.278;2023-04-16T01:42:20;7.30;99.90
6964;DHT22;3522;50.856;7.278;2023-04-16T01:44:47;7.30;99.90
6964;DHT22;3522;50.856;7.278;2023-04-16T01:47:13;7.30;99.90
6964;DHT22;3522;50.856;7.278;2023-04-16T01:49:40;7.30;99.90
6964;DHT22;3522;50.856;7.278;2023-04-16T01:52:06;7.30;99.90
6964;DHT22;3522;50.856;7.278;2023-04-16T01:54:33;7.30;99.90
6964;DHT22;3522;50.856;7.278;2023-04-16T01:57:01;7.30;99.90
6964;DHT22;3522;50.856;7.278;2023-04-16T01:59:27;7.30;99.90
6964;DHT22;3522;50.856;7.278;2023-04-16T02:01:54;7.30;99.90
6964;DHT22;3522;50.856;7.278;2023-04-16T02:04:20;7.30;99.90
6964;DHT22;3522;50.856;7.278;2023-04-16T02:06:47;7.30;99.90
6964;DHT22;3522;50.856;7.278;2023-04-16T02:09:14;7.30;99.90
6964;DHT22;3522;50.856;7.278;2023-04-16T02:11:40;7.30;99.90
6964;DHT22;3522;50.856;7.278;2023-04-16T02:14:08;7.30;99.90
6964;DHT22;3522;50.856;7.278;2023-04-16T02:16:35;7.30;99.90
6964;DHT22;3522;50.856;7.278;2023-04-16T02:19:01;7.30;99.90
6964;DHT22;3522;50.856;7.278;2023-04-16T02:21:28;7.30;99.90
6964;DHT22;3522;50.856;7.278;2023-04-16T02:23:56;7.30;99.90
6964;DHT22;3522;50.856;7.278;2023-04-16T02:26:22;7.30;99.90
6964;DHT22;3522;50.856;7.278;2023-04-16T02:28:50;7.30;99.90
6964;DHT22;3522;50.856;7.278;2023-04-16T02:31:18;7.30;99.90
6964;DHT22;3522;50.856;7.278;2023-04-16T02:33:46;7.30;99.90
6964;DHT22;3522;50.856;7.278;2023-04-16T02:36:13;7.30;99.90
6964;DHT22;3522;50.856;7.278;2023-04-16T02:38:39;7.30;99.90
6964;DHT22;3522;50.856;7.278;2023-04-16T02:41:06;7.30;99.90
6964;DHT22;3522;50.856;7.278;2023-04-16T02:43:32;7.30;99.90
6964;DHT22;3522;50.856;7.278;2023-04-16T02:45:59;7.30;99.90
6964;DHT22;3522;50.856;7.278;2023-04-16T02:48:27;7.30;99.90
6964;DHT22;3522;50.856;7.278;2023-04-16T02:50:54;7.30;99.90
6964;DHT22;3522;50.856;7.278;2023-04-16T02:53:20;7.30;99.90
6964;DHT22;3522;50.856;7.278;2023-04-16T02:55:48;7.30;99.90
6964;DHT22;3522;50.856;7.278;2023-04-16T02:58:16;7.30;99.90
6964;DHT22;3522;50.856;7.278;2023-04-16T03:00:43;7.30;99.90
6964;DHT22;3522;50.856;7.278;2023-04-16T03:03:10;7.30;99.90
6964;DHT22;3522;50.856;7.278;2023-04-16T03:05:37;7.30;99.90
6964;DHT22;3522;50.856;7.278;2023-04-16T03:08:04;7.30;99.90
6964;DHT22;3522;50.856;7.278;2023-04-16T03:10:31;7.30;99.90
6964;DHT22;3522;50.856;7.278;2023-04-16T03:12:59;7.30;99.90
6964;DHT22;3522;50.856;7.278;2023-04-16T03:15:25;7.30;99.90
6964;DHT22;3522;50.856;7.278;2023-04-16T03:17:52;7.30;99.90
6964;DHT22;3522;50.856;7.278;2023-04-16T03:20:19;7.30;99.90
6964;DHT22;3522;50.856;7.278;2023-04-16T03:22:47;7.30;99.90
6964;DHT22;3522;50.856;7.278;2023-04-16T03:25:13;7.30;99.90
6964;DHT22;3522;50.856;7.278;2023-04-16T03:27:40;7.30;99.90
6964;DHT22;3522;50.856;7.278;2023-04-16T03:30:07;7.30;99.90
6964;DHT22;3522;50.856;7.278;2023-04-16T03:32:34;7.30;99.90
6964;DHT22;3522;50.856;7.278;2023-04-16T03:35:01;7.30;99.90
6964;DHT22;3522;50.856;7.278;2023-04-16T03:37:28;7.30;99.90
6964;DHT22;3522;50.856;7.278;2023-04-16T03:39:56;7.30;99.90
6964;DHT22;3522;50.856;7.278;2023-04-16T03:42:23;7.30;99.90
6964;DHT22;3522;50.856;7.278;2023-04-16T03:44:49;7.30;99.90
6964;DHT22;3522;50.856;7.278;2023-04-16T03:47:17;7.30;99.90
6964;DHT22;3522;50.856;7.278;2023-04-16T03:49:44;7.30;99.90
6964;DHT22;3522;50.856;7.278;2023-04-16T03:52:11;7.30;99.90
6964;DHT22;3522;50.856;7.278;2023-04-16T03:54:37;7.30;99.90
6964;DHT22;3522;50.856;7.278;2023-04-16T03:57:05;7.30;99.90
6964;DHT22;3522;50.856;7.278;2023-04-16T03:59:32;7.30;99.90
6964;DHT22;3522;50.856;7.278;2023-04-16T04:01:58;7.30;99.90
6964;DHT22;3522;50.856;7.278;2023-04-16T04:04:25;7.30;99.90
6964;DHT22;3522;50.856;7.278;2023-04-16T04:06:52;7.30;99.90
6964;DHT22;3522;50.856;7.278;2023-04-16T04:09:18;7.30;99.90
6964;DHT22;3522;50.856;7.278;2023-04-16T04:11:45;7.40;99.90
6964;DHT22;3522;50.856;7.278;2023-04-16T04:14:13;7.40;99.90
6964;DHT22;3522;50.856;7.278;2023-04-16T04:16:40;7.40;99.90
6964;DHT22;3522;50.856;7.278;2023-04-16T04:19:07;7.40;99.90
6964;DHT22;3522;50.856;7.278;2023-04-16T04:21:33;7.40;99.90
6964;DHT22;3522;50.856;7.278;2023-04-16T04:24:00;7.40;99.90
6964;DHT22;3522;50.856;7.278;2023-04-16T04:26:26;7.40;99.90
6964;DHT22;3522;50.856;7.278;2023-04-16T04:28:53;7.40;99.90
6964;DHT22;3522;50.856;7.278;2023-04-16T04:31:21;7.40;99.90
6964;DHT22;3522;50.856;7.278;2023-04-16T04:33:47;7.40;99.90
6964;DHT22;3522;50.856;7.278;2023-04-16T04:36:14;7.40;99.90
6964;DHT22;3522;50.856;7.278;2023-04-16T04:38:40;7.40;99.90
6964;DHT22;3522;50.856;7.278;2023-04-16T04:41:07;7.40;99.90
6964;DHT22;3522;50.856;7.278;2023-04-16T04:43:33;7.40;99.90
6964;DHT22;3522;50.856;7.278;2023-04-16T04:46:00;7.40;99.90
6964;DHT22;3522;50.856;7.278;2023-04-16T04:48:28;7.40;99.90
6964;DHT22;3522;50.856;7.278;2023-04-16T04:50:54;7.40;99.90
6964;DHT22;3522;50.856;7.278;2023-04-16T04:53:21;7.40;99.90
6964;DHT22;3522;50.856;7.278;2023-04-16T04:55:48;7.40;99.90
6964;DHT22;3522;50.856;7.278;2023-04-16T04:58:14;7.40;99.90
6964;DHT22;3522;50.856;7.278;2023-04-16T05:00:41;7.40;99.90
6964;DHT22;3522;50.856;7.278;2023-04-16T05:03:08;7.40;99.90
6964;DHT22;3522;50.856;7.278;2023-04-16T05:05:36;7.40;99.90
6964;DHT22;3522;50.856;7.278;2023-04-16T05:08:03;7.40;99.90
6964;DHT22;3522;50.856;7.278;2023-04-16T05:10:30;7.40;99.90
6964;DHT22;3522;50.856;7.278;2023-04-16T05:12:56;7.40;99.90
6964;DHT22;3522;50.856;7.278;2023-04-16T05:15:23;7.40;99.90
6964;DHT22;3522;50.856;7.278;2023-04-16T05:17:50;7.40;99.90
6964;DHT22;3522;50.856;7.278;2023-04-16T05:20:16;7.50;99.90
6964;DHT22;3522;50.856;7.278;2023-04-16T05:22:44;7.50;99.90
6964;DHT22;3522;50.856;7.278;2023-04-16T05:25:11;7.50;99.90
6964;DHT22;3522;50.856;7.278;2023-04-16T05:27:37;7.50;99.90
6964;DHT22;3522;50.856;7.278;2023-04-16T05:30:05;7.50;99.90
6964;DHT22;3522;50.856;7.278;2023-04-16T05:32:32;7.50;99.90
6964;DHT22;3522;50.856;7.278;2023-04-16T05:34:58;7.50;99.90
6964;DHT22;3522;50.856;7.278;2023-04-16T05:37:25;7.50;99.90
6964;DHT22;3522;50.856;7.278;2023-04-16T05:39:54;7.60;99.90
6964;DHT22;3522;50.856;7.278;2023-04-16T05:42:20;7.60;99.90
6964;DHT22;3522;50.856;7.278;2023-04-16T05:44:47;7.60;99.90
6964;DHT22;3522;50.856;7.278;2023-04-16T05:47:13;7.60;99.90
6964;DHT22;3522;50.856;7.278;2023-04-16T05:49:40;7.60;99.90
6964;DHT22;3522;50.856;7.278;2023-04-16T05:52:06;7.60;99.90
6964;DHT22;3522;50.856;7.278;2023-04-16T05:54:33;7.60;99.90
6964;DHT22;3522;50.856;7.278;2023-04-16T05:57:01;7.60;99.90
6964;DHT22;3522;50.856;7.278;2023-04-16T05:59:28;7.60;99.90
6964;DHT22;3522;50.856;7.278;2023-04-16T06:01:55;7.60;99.90
6964;DHT22;3522;50.856;7.278;2023-04-16T06:04:21;7.60;99.90
6964;DHT22;3522;50.856;7.278;2023-04-16T06:06:48;7.60;99.90
6964;DHT22;3522;50.856;7.278;2023-04-16T06:09:15;7.60;99.90
6964;DHT22;3522;50.856;7.278;2023-04-16T06:11:42;7.60;99.90
6964;DHT22;3522;50.856;7.278;2023-04-16T06:14:11;7.60;99.90
6964;DHT22;3522;50.856;7.278;2023-04-16T06:16:37;7.70;99.90
6964;DHT22;3522;50.856;7.278;2023-04-16T06:19:04;7.60;99.90
6964;DHT22;3522;50.856;7.278;2023-04-16T06:21:30;7.70;99.90
6964;DHT22;3522;50.856;7.278;2023-04-16T06:23:57;7.70;99.90
6964;DHT22;3522;50.856;7.278;2023-04-16T06:26:24;7.70;99.90
6964;DHT22;3522;50.856;7.278;2023-04-16T06:28:51;7.70;99.90
6964;DHT22;3522;50.856;7.278;2023-04-16T06:31:19;7.70;99.90
6964;DHT22;3522;50.856;7.278;2023-04-16T06:33:45;7.70;99.90
6964;DHT22;3522;50.856;7.278;2023-04-16T06:36:12;7.70;99.90
6964;DHT22;3522;50.856;7.278;2023-04-16T06:38:39;7.70;99.90
6964;DHT22;3522;50.856;7.278;2023-04-16T06:41:05;7.80;99.90
6964;DHT22;3522;50.856;7.278;2023-04-16T06:43:32;7.80;99.90
6964;DHT22;3522;50.856;7.278;2023-04-16T06:45:58;7.80;99.90
6964;DHT22;3522;50.856;7.278;2023-04-16T06:48:27;7.70;99.90
6964;DHT22;3522;50.856;7.278;2023-04-16T06:50:54;7.80;99.90
6964;DHT22;3522;50.856;7.278;2023-04-16T06:53:20;7.80;99.90
6964;DHT22;3522;50.856;7.278;2023-04-16T06:55:47;7.80;99.90
6964;DHT22;3522;50.856;7.278;2023-04-16T06:58:14;7.80;99.90
6964;DHT22;3522;50.856;7.278;2023-04-16T07:00:40;8.00;99.90
6964;DHT22;3522;50.856;7.278;2023-04-16T07:03:07;7.90;99.90
6964;DHT22;3522;50.856;7.278;2023-04-16T07:05:35;7.80;99.90
6964;DHT22;3522;50.856;7.278;2023-04-16T07:08:01;7.80;99.90
6964;DHT22;3522;50.856;7.278;2023-04-16T07:10:28;7.90;99.90
6964;DHT22;3522;50.856;7.278;2023-04-16T07:12:54;7.90;99.90
6964;DHT22;3522;50.856;7.278;2023-04-16T07:15:21;7.90;99.90
6964;DHT22;3522;50.856;7.278;2023-04-16T07:17:47;7.90;99.90
6964;DHT22;3522;50.856;7.278;2023-04-16T07:20:14;7.90;99.90
6964;DHT22;3522;50.856;7.278;2023-04-16T07:22:42;7.90;99.90
6964;DHT22;3522;50.856;7.278;2023-04-16T07:25:09;7.90;99.90
6964;DHT22;3522;50.856;7.278;2023-04-16T07:27:35;7.90;99.90
6964;DHT22;3522;50.856;7.278;2023-04-16T07:30:02;7.90;99.90
6964;DHT22;3522;50.856;7.278;2023-04-16T07:32:29;7.90;99.90
6964;DHT22;3522;50.856;7.278;2023-04-16T07:34:56;8.00;99.90
6964;DHT22;3522;50.856;7.278;2023-04-16T07:37:22;8.00;99.90
6964;DHT22;3522;50.856;7.278;2023-04-16T07:39:50;8.00;99.90
6964;DHT22;3522;50.856;7.278;2023-04-16T07:42:17;8.00;99.90
6964;DHT22;3522;50.856;7.278;2023-04-16T07:44:43;8.00;99.90
6964;DHT22;3522;50.856;7.278;2023-04-16T07:47:10;8.00;99.90
6964;DHT22;3522;50.856;7.278;2023-04-16T07:49:36;8.00;99.90
6964;DHT22;3522;50.856;7.278;2023-04-16T07:52:03;8.00;99.90
6964;DHT22;3522;50.856;7.278;2023-04-16T07:54:30;8.00;99.90
6964;DHT22;3522;50.856;7.278;2023-04-16T07:56:58;8.00;99.90
6964;DHT22;3522;50.856;7.278;2023-04-16T07:59:24;8.10;99.90
6964;DHT22;3522;50.856;7.278;2023-04-16T08:01:51;8.10;99.90
6964;DHT22;3522;50.856;7.278;2023-04-16T08:04:18;8.10;99.90
6964;DHT22;3522;50.856;7.278;2023-04-16T08:06:48;8.00;99.90
6964;DHT22;3522;50.856;7.278;2023-04-16T08:09:15;8.10;99.90
6964;DHT22;3522;50.856;7.278;2023-04-16T08:11:42;8.10;99.90
6964;DHT22;3522;50.856;7.278;2023-04-16T08:14:10;8.20;99.90
6964;DHT22;3522;50.856;7.278;2023-04-16T08:16:36;8.20;99.90
6964;DHT22;3522;50.856;7.278;2023-04-16T08:19:04;8.20;99.90
6964;DHT22;3522;50.856;7.278;2023-04-16T08:21:31;8.20;99.90
6964;DHT22;3522;50.856;7.278;2023-04-16T08:23:58;8.20;99.90
6964;DHT22;3522;50.856;7.278;2023-04-16T08:26:24;8.20;99.90
6964;DHT22;3522;50.856;7.278;2023-04-16T08:28:51;8.20;99.90
6964;DHT22;3522;50.856;7.278;2023-04-16T08:31:19;8.20;99.90
6964;DHT22;3522;50.856;7.278;2023-04-16T08:33:46;8.20;99.90
6964;DHT22;3522;50.856;7.278;2023-04-16T08:36:12;8.20;99.90
6964;DHT22;3522;50.856;7.278;2023-04-16T08:38:39;8.20;99.90
6964;DHT22;3522;50.856;7.278;2023-04-16T08:41:05;8.20;99.90
6964;DHT22;3522;50.856;7.278;2023-04-16T08:43:35;8.20;99.90
6964;DHT22;3522;50.856;7.278;2023-04-16T08:46:03;8.20;99.90
6964;DHT22;3522;50.856;7.278;2023-04-16T08:48:32;8.30;99.90
6964;DHT22;3522;50.856;7.278;2023-04-16T08:50:59;8.30;99.90
6964;DHT22;3522;50.856;7.278;2023-04-16T08:53:28;8.30;99.90
6964;DHT22;3522;50.856;7.278;2023-04-16T08:55:58;8.30;99.90
6964;DHT22;3522;50.856;7.278;2023-04-16T08:58:25;8.40;99.90
6964;DHT22;3522;50.856;7.278;2023-04-16T09:00:55;8.50;99.90
6964;DHT22;3522;50.856;7.278;2023-04-16T09:03:21;8.50;99.90
6964;DHT22;3522;50.856;7.278;2023-04-16T09:05:49;8.60;99.90
6964;DHT22;3522;50.856;7.278;2023-04-16T09:08:16;8.60;99.90
6964;DHT22;3522;50.856;7.278;2023-04-16T09:10:43;8.70;99.90
6964;DHT22;3522;50.856;7.278;2023-04-16T09:13:10;8.80;99.90
6964;DHT22;3522;50.856;7.278;2023-04-16T09:15:37;8.90;99.90
6964;DHT22;3522;50.856;7.278;2023-04-16T09:18:04;9.00;99.90
6964;DHT22;3522;50.856;7.278;2023-04-16T09:20:31;9.10;99.90
6964;DHT22;3522;50.856;7.278;2023-04-16T09:22:59;9.30;99.90
6964;DHT22;3522;50.856;7.278;2023-04-16T09:25:26;9.30;99.90
6964;DHT22;3522;50.856;7.278;2023-04-16T09:27:52;9.30;99.90
6964;DHT22;3522;50.856;7.278;2023-04-16T09:30:20;9.40;99.90
6964;DHT22;3522;50.856;7.278;2023-04-16T09:32:47;9.40;99.90
6964;DHT22;3522;50.856;7.278;2023-04-16T09:35:14;9.50;99.90
6964;DHT22;3522;50.856;7.278;2023-04-16T09:37:40;9.50;99.90
6964;DHT22;3522;50.856;7.278;2023-04-16T09:40:09;9.50;99.90
6964;DHT22;3522;50.856;7.278;2023-04-16T09:42:36;9.50;99.90
6964;DHT22;3522;50.856;7.278;2023-04-16T09:45:02;9.40;99.90
6964;DHT22;3522;50.856;7.278;2023-04-16T09:47:37;9.40;99.90
6964;DHT22;3522;50.856;7.278;2023-04-16T09:50:04;9.40;99.90
6964;DHT22;3522;50.856;7.278;2023-04-16T09:52:31;9.50;99.90
6964;DHT22;3522;50.856;7.278;2023-04-16T09:55:01;9.50;99.90
6964;DHT22;3522;50.856;7.278;2023-04-16T09:57:29;9.60;99.90
6964;DHT22;3522;50.856;7.278;2023-04-16T10:00:03;9.60;99.90
6964;DHT22;3522;50.856;7.278;2023-04-16T10:02:31;9.70;99.90
6964;DHT22;3522;50.856;7.278;2023-04-16T10:04:59;9.70;99.90
6964;DHT22;3522;50.856;7.278;2023-04-16T10:07:26;9.60;99.90
6964;DHT22;3522;50.856;7.278;2023-04-16T10:09:53;9.60;99.90
6964;DHT22;3522;50.856;7.278;2023-04-16T10:12:20;9.70;99.90
6964;DHT22;3522;50.856;7.278;2023-04-16T10:14:48;9.70;99.90
6964;DHT22;3522;50.856;7.278;2023-04-16T10:17:15;9.70;99.90
6964;DHT22;3522;50.856;7.278;2023-04-16T10:19:41;9.70;99.90
6964;DHT22;3522;50.856;7.278;2023-04-16T10:22:09;9.80;99.90
6964;DHT22;3522;50.856;7.278;2023-04-16T10:24:37;9.80;99.90
6964;DHT22;3522;50.856;7.278;2023-04-16T10:27:03;9.80;99.90
6964;DHT22;3522;50.856;7.278;2023-04-16T10:29:30;9.80;99.90
6964;DHT22;3522;50.856;7.278;2023-04-16T10:31:58;9.90;99.90
6964;DHT22;3522;50.856;7.278;2023-04-16T10:34:25;9.90;99.90
6964;DHT22;3522;50.856;7.278;2023-04-16T10:36:53;9.90;99.90
6964;DHT22;3522;50.856;7.278;2023-04-16T10:39:20;9.90;99.90
6964;DHT22;3522;50.856;7.278;2023-04-16T10:41:47;10.00;99.90
6964;DHT22;3522;50.856;7.278;2023-04-16T10:44:16;10.00;99.90
6964;DHT22;3522;50.856;7.278;2023-04-16T10:46:43;10.10;99.90
6964;DHT22;3522;50.856;7.278;2023-04-16T10:49:14;10.10;99.90
6964;DHT22;3522;50.856;7.278;2023-04-16T10:51:42;10.10;99.90
6964;DHT22;3522;50.856;7.278;2023-04-16T10:54:22;10.30;99.90
6964;DHT22;3522;50.856;7.278;2023-04-16T10:56:49;10.40;99.90
6964;DHT22;3522;50.856;7.278;2023-04-16T10:59:17;10.40;99.90
6964;DHT22;3522;50.856;7.278;2023-04-16T11:01:44;10.40;99.90
6964;DHT22;3522;50.856;7.278;2023-04-16T11:04:28;10.40;99.90
6964;DHT22;3522;50.856;7.278;2023-04-16T11:07:02;10.40;99.90
6964;DHT22;3522;50.856;7.278;2023-04-16T11:09:50;10.40;99.90
6964;DHT22;3522;50.856;7.278;2023-04-16T11:12:17;10.30;99.90
6964;DHT22;3522;50.856;7.278;2023-04-16T11:14:46;10.30;99.90
6964;DHT22;3522;50.856;7.278;2023-04-16T11:17:12;10.20;99.90
6964;DHT22;3522;50.856;7.278;2023-04-16T11:19:41;10.20;99.90
6964;DHT22;3522;50.856;7.278;2023-04-16T11:22:08;10.20;99.90
6964;DHT22;3522;50.856;7.278;2023-04-16T11:24:37;10.30;99.90
6964;DHT22;3522;50.856;7.278;2023-04-16T11:27:05;10.50;99.90
6964;DHT22;3522;50.856;7.278;2023-04-16T11:29:32;10.50;99.90
6964;DHT22;3522;50.856;7.278;2023-04-16T11:31:58;10.70;99.90
6964;DHT22;3522;50.856;7.278;2023-04-16T11:34:25;10.80;99.90
6964;DHT22;3522;50.856;7.278;2023-04-16T11:36:53;10.80;99.90
6964;DHT22;3522;50.856;7.278;2023-04-16T11:39:20;10.80;99.90
6964;DHT22;3522;50.856;7.278;2023-04-16T11:41:47;10.80;99.90
6964;DHT22;3522;50.856;7.278;2023-04-16T11:44:17;10.70;99.90
6964;DHT22;3522;50.856;7.278;2023-04-16T11:46:44;10.70;99.90
6964;DHT22;3522;50.856;7.278;2023-04-16T11:49:10;10.70;99.90
6964;DHT22;3522;50.856;7.278;2023-04-16T11:51:40;10.80;99.90
6964;DHT22;3522;50.856;7.278;2023-04-16T11:54:08;10.90;99.90
6964;DHT22;3522;50.856;7.278;2023-04-16T11:56:35;11.20;99.90
6964;DHT22;3522;50.856;7.278;2023-04-16T11:59:04;11.50;99.90
6964;DHT22;3522;50.856;7.278;2023-04-16T12:01:31;11.60;99.90
6964;DHT22;3522;50.856;7.278;2023-04-16T12:04:00;11.80;99.90
6964;DHT22;3522;50.856;7.278;2023-04-16T12:06:26;11.90;99.90
6964;DHT22;3522;50.856;7.278;2023-04-16T12:08:53;11.90;99.90
6964;DHT22;3522;50.856;7.278;2023-04-16T12:11:21;11.80;99.90
6964;DHT22;3522;50.856;7.278;2023-04-16T12:14:05;11.70;99.90
6964;DHT22;3522;50.856;7.278;2023-04-16T12:16:32;11.70;99.90
6964;DHT22;3522;50.856;7.278;2023-04-16T12:18:59;11.60;99.90
6964;DHT22;3522;50.856;7.278;2023-04-16T12:21:34;11.50;99.90
6964;DHT22;3522;50.856;7.278;2023-04-16T12:24:01;11.50;99.90
6964;DHT22;3522;50.856;7.278;2023-04-16T12:26:35;11.50;99.90
6964;DHT22;3522;50.856;7.278;2023-04-16T12:29:12;11.60;99.90
6964;DHT22;3522;50.856;7.278;2023-04-16T12:31:39;11.70;99.90
6964;DHT22;3522;50.856;7.278;2023-04-16T12:34:06;11.70;99.90
6964;DHT22;3522;50.856;7.278;2023-04-16T12:36:32;11.80;99.90
6964;DHT22;3522;50.856;7.278;2023-04-16T12:38:59;11.90;99.90
6964;DHT22;3522;50.856;7.278;2023-04-16T12:41:25;11.80;99.90
6964;DHT22;3522;50.856;7.278;2023-04-16T12:43:56;11.90;99.90
6964;DHT22;3522;50.856;7.278;2023-04-16T12:46:27;12.00;99.90
6964;DHT22;3522;50.856;7.278;2023-04-16T12:48:53;12.00;99.90
6964;DHT22;3522;50.856;7.278;2023-04-16T12:51:21;12.10;99.90
6964;DHT22;3522;50.856;7.278;2023-04-16T12:53:48;12.20;99.90
6964;DHT22;3522;50.856;7.278;2023-04-16T12:56:15;12.20;99.90
6964;DHT22;3522;50.856;7.278;2023-04-16T12:58:41;12.20;99.90
6964;DHT22;3522;50.856;7.278;2023-04-16T13:01:09;12.20;99.90
6964;DHT22;3522;50.856;7.278;2023-04-16T13:03:37;12.10;99.90
6964;DHT22;3522;50.856;7.278;2023-04-16T13:06:03;12.00;99.90
6964;DHT22;3522;50.856;7.278;2023-04-16T13:08:30;11.90;99.90
6964;DHT22;3522;50.856;7.278;2023-04-16T13:10:56;12.00;99.90
6964;DHT22;3522;50.856;7.278;2023-04-16T13:13:23;12.00;99.90
6964;DHT22;3522;50.856;7.278;2023-04-16T13:15:50;12.10;99.90
6964;DHT22;3522;50.856;7.278;2023-04-16T13:18:18;12.10;99.90
6964;DHT22;3522;50.856;7.278;2023-04-16T13:20:44;12.20;99.90
6964;DHT22;3522;50.856;7.278;2023-04-16T13:23:11;12.10;99.90
6964;DHT22;3522;50.856;7.278;2023-04-16T13:25:37;12.20;99.90
6964;DHT22;3522;50.856;7.278;2023-04-16T13:28:04;12.20;99.90
6964;DHT22;3522;50.856;7.278;2023-04-16T13:30:31;12.30;99.90
6964;DHT22;3522;50.856;7.278;2023-04-16T13:32:58;12.40;99.90
6964;DHT22;3522;50.856;7.278;2023-04-16T13:35:26;12.40;99.90
6964;DHT22;3522;50.856;7.278;2023-04-16T13:37:52;12.50;99.90
6964;DHT22;3522;50.856;7.278;2023-04-16T13:40:19;12.50;99.90
6964;DHT22;3522;50.856;7.278;2023-04-16T13:42:45;12.50;99.90
6964;DHT22;3522;50.856;7.278;2023-04-16T13:45:12;12.50;99.90
6964;DHT22;3522;50.856;7.278;2023-04-16T13:47:39;12.30;99.90
6964;DHT22;3522;50.856;7.278;2023-04-16T13:50:06;12.30;99.90
6964;DHT22;3522;50.856;7.278;2023-04-16T13:52:34;12.30;99.90
6964;DHT22;3522;50.856;7.278;2023-04-16T13:55:03;12.30;99.90
6964;DHT22;3522;50.856;7.278;2023-04-16T13:57:30;12.40;99.90
6964;DHT22;3522;50.856;7.278;2023-04-16T13:59:57;12.50;99.90
6964;DHT22;3522;50.856;7.278;2023-04-16T14:02:23;12.60;99.90
6964;DHT22;3522;50.856;7.278;2023-04-16T14:04:50;12.80;99.90
6964;DHT22;3522;50.856;7.278;2023-04-16T14:07:17;12.80;99.90
6964;DHT22;3522;50.856;7.278;2023-04-16T14:09:48;12.70;99.90
6964;DHT22;3522;50.856;7.278;2023-04-16T14:12:14;12.60;99.90
6964;DHT22;3522;50.856;7.278;2023-04-16T14:14:41;12.60;99.90
6964;DHT22;3522;50.856;7.278;2023-04-16T14:17:07;12.70;99.90
6964;DHT22;3522;50.856;7.278;2023-04-16T14:19:35;12.70;99.90
6964;DHT22;3522;50.856;7.278;2023-04-16T14:22:01;12.70;99.90
6964;DHT22;3522;50.856;7.278;2023-04-16T14:24:28;12.60;99.90
6964;DHT22;3522;50.856;7.278;2023-04-16T14:26:56;12.60;99.90
6964;DHT22;3522;50.856;7.278;2023-04-16T14:29:22;12.50;99.90
6964;DHT22;3522;50.856;7.278;2023-04-16T14:31:49;12.50;99.90
6964;DHT22;3522;50.856;7.278;2023-04-16T14:34:15;12.50;99.90
6964;DHT22;3522;50.856;7.278;2023-04-16T14:36:42;12.50;99.90
6964;DHT22;3522;50.856;7.278;2023-04-16T14:39:09;12.50;99.90
6964;DHT22;3522;50.856;7.278;2023-04-16T14:41:36;12.40;99.90
6964;DHT22;3522;50.856;7.278;2023-04-16T14:44:04;12.40;99.90
6964;DHT22;3522;50.856;7.278;2023-04-16T14:46:31;12.40;99.90
6964;DHT22;3522;50.856;7.278;2023-04-16T14:48:57;12.40;99.90
6964;DHT22;3522;50.856;7.278;2023-04-16T14:51:24;12.50;99.90
6964;DHT22;3522;50.856;7.278;2023-04-16T14:53:51;12.60;99.90
6964;DHT22;3522;50.856;7.278;2023-04-16T14:56:18;12.60;99.90
6964;DHT22;3522;50.856;7.278;2023-04-16T14:58:45;12.70;99.90
6964;DHT22;3522;50.856;7.278;2023-04-16T15:01:14;12.80;99.90
6964;DHT22;3522;50.856;7.278;2023-04-16T15:03:41;12.80;99.90
6964;DHT22;3522;50.856;7.278;2023-04-16T15:06:08;12.80;99.90
6964;DHT22;3522;50.856;7.278;2023-04-16T15:08:34;12.70;99.90
6964;DHT22;3522;50.856;7.278;2023-04-16T15:11:01;12.60;99.90
6964;DHT22;3522;50.856;7.278;2023-04-16T15:13:28;12.50;99.90
6964;DHT22;3522;50.856;7.278;2023-04-16T15:15:58;12.50;99.90
6964;DHT22;3522;50.856;7.278;2023-04-16T15:18:26;12.50;99.90
6964;DHT22;3522;50.856;7.278;2023-04-16T15:20:53;12.60;99.90
6964;DHT22;3522;50.856;7.278;2023-04-16T15:23:20;12.60;99.90
6964;DHT22;3522;50.856;7.278;2023-04-16T15:25:46;12.60;99.90
6964;DHT22;3522;50.856;7.278;2023-04-16T15:28:13;12.50;99.90
6964;DHT22;3522;50.856;7.278;2023-04-16T15:30:40;12.40;99.90
6964;DHT22;3522;50.856;7.278;2023-04-16T15:33:07;12.30;99.90
6964;DHT22;3522;50.856;7.278;2023-04-16T15:35:34;12.30;99.90
6964;DHT22;3522;50.856;7.278;2023-04-16T15:38:03;12.20;99.90
6964;DHT22;3522;50.856;7.278;2023-04-16T15:40:30;12.20;99.90
6964;DHT22;3522;50.856;7.278;2023-04-16T15:42:56;12.20;99.90
6964;DHT22;3522;50.856;7.278;2023-04-16T15:45:23;12.30;99.90
6964;DHT22;3522;50.856;7.278;2023-04-16T15:47:50;12.20;99.90
6964;DHT22;3522;50.856;7.278;2023-04-16T15:50:17;12.20;99.90
6964;DHT22;3522;50.856;7.278;2023-04-16T15:52:45;12.20;99.90
6964;DHT22;3522;50.856;7.278;2023-04-16T15:55:11;12.10;99.90
6964;DHT22;3522;50.856;7.278;2023-04-16T15:57:38;12.10;99.90
6964;DHT22;3522;50.856;7.278;2023-04-16T16:00:05;12.10;99.90
6964;DHT22;3522;50.856;7.278;2023-04-16T16:02:38;12.10;99.90
6964;DHT22;3522;50.856;7.278;2023-04-16T16:05:04;12.10;99.90
6964;DHT22;3522;50.856;7.278;2023-04-16T16:07:31;12.10;99.90
6964;DHT22;3522;50.856;7.278;2023-04-16T16:09:59;12.00;99.90
6964;DHT22;3522;50.856;7.278;2023-04-16T16:12:26;12.00;99.90